createdAt,value
2023-04-01T00:01:18.226Z,98472.69
2023-04-01T00:03:47.619Z,98473.22
2023-04-01T00:06:18.386Z,98479.03
2023-04-01T00:08:47.614Z,98486.81
2023-04-01T00:11:16.882Z,98486.50
2023-04-01T00:13:45.441Z,98493.13
2023-04-01T00:16:21.580Z,98483.84
2023-04-01T00:18:51.755Z,98490.66
2023-04-01T00:21:21.901Z,98491.13
2023-04-01T00:23:51.800Z,98485.91
2023-04-01T00:26:22.279Z,98504.88
2023-04-01T00:28:51.277Z,98499.69
2023-04-01T00:31:19.783Z,98499.03
2023-04-01T00:33:48.052Z,98487.38
2023-04-01T00:36:20.560Z,98496.59
2023-04-01T00:38:49.210Z,98496.44
2023-04-01T00:41:18.232Z,98489.78
2023-04-01T00:43:49.003Z,98495.16
2023-04-01T00:46:17.663Z,98488.28
2023-04-01T00:48:52.547Z,98481.16
2023-04-01T00:51:28.228Z,98472.78
2023-04-01T00:53:59.109Z,98476.41
2023-04-01T00:56:33.291Z,98474.63
2023-04-01T00:59:11.929Z,98474.13
2023-04-01T01:01:41.009Z,98478.97
2023-04-01T01:04:23.180Z,98475.41
2023-04-01T01:06:58.069Z,98478.81
2023-04-01T01:09:54.516Z,98480.75
2023-04-01T01:12:41.355Z,98479.09
2023-04-01T01:15:30.704Z,98482.47
2023-04-01T01:18:20.274Z,98478.00
2023-04-01T01:21:06.846Z,98460.78
2023-04-01T01:24:04.440Z,98470.19
2023-04-01T01:27:10.196Z,98472.62
2023-04-01T01:29:53.704Z,98472.44
2023-04-01T01:32:57.340Z,98474.69
2023-04-01T01:35:51.200Z,98470.25
2023-04-01T01:38:25.155Z,98469.06
2023-04-01T01:40:59.064Z,98462.88
2023-04-01T01:43:37.832Z,98470.69
2023-04-01T01:46:12.690Z,98468.53
2023-04-01T01:48:43.808Z,98469.50
2023-04-01T01:51:12.824Z,98472.09
2023-04-01T01:53:41.617Z,98477.16
2023-04-01T01:56:13.631Z,98475.00
2023-04-01T01:58:56.967Z,98463.47
2023-04-01T02:01:29.353Z,98473.34
2023-04-01T02:03:59.879Z,98465.59
2023-04-01T02:06:31.850Z,98466.41
2023-04-01T02:09:04.952Z,98460.69
2023-04-01T02:11:53.815Z,98461.56
2023-04-01T02:14:46.224Z,98466.28
2023-04-01T02:17:23.431Z,98457.47
2023-04-01T02:20:08.866Z,98458.94
2023-04-01T02:22:42.968Z,98454.56
2023-04-01T02:25:21.864Z,98445.66
2023-04-01T02:27:50.665Z,98449.91
2023-04-01T02:30:19.773Z,98443.53
2023-04-01T02:32:49.517Z,98439.53
2023-04-01T02:35:19.007Z,98453.31
2023-04-01T02:37:50.726Z,98450.22
2023-04-01T02:40:19.485Z,98442.78
2023-04-01T02:42:48.205Z,98446.34
2023-04-01T02:45:16.372Z,98441.81
2023-04-01T02:47:44.571Z,98441.69
2023-04-01T02:50:13.150Z,98436.19
2023-04-01T02:52:41.486Z,98436.22
2023-04-01T02:55:10.149Z,98441.13
2023-04-01T02:57:38.623Z,98429.59
2023-04-01T03:00:12.122Z,98436.59
2023-04-01T03:02:40.745Z,98444.88
2023-04-01T03:05:09.188Z,98444.53
2023-04-01T03:07:37.650Z,98444.03
2023-04-01T03:10:07.648Z,98453.91
2023-04-01T03:12:36.156Z,98446.13
2023-04-01T03:15:10.741Z,98448.72
2023-04-01T03:17:42.376Z,98449.53
2023-04-01T03:20:12.206Z,98444.34
2023-04-01T03:22:42.878Z,98443.34
2023-04-01T03:25:11.657Z,98446.31
2023-04-01T03:27:40.139Z,98449.88
2023-04-01T03:30:10.558Z,98447.44
2023-04-01T03:32:39.117Z,98451.66
2023-04-01T03:35:07.525Z,98443.25
2023-04-01T03:37:36.016Z,98459.47
2023-04-01T03:40:04.823Z,98466.12
2023-04-01T03:42:33.630Z,98461.94
2023-04-01T03:45:02.353Z,98466.31
2023-04-01T03:47:31.375Z,98472.81
2023-04-01T03:49:59.616Z,98478.84
2023-04-01T03:52:28.142Z,98480.94
2023-04-01T03:54:56.560Z,98482.41
2023-04-01T03:57:25.981Z,98482.72
2023-04-01T03:59:54.730Z,98470.53
2023-04-01T04:02:22.952Z,98481.53
2023-04-01T04:04:51.724Z,98492.03
2023-04-01T04:07:19.818Z,98483.47
2023-04-01T04:09:49.465Z,98494.97
2023-04-01T04:12:18.329Z,98493.53
2023-04-01T04:14:46.515Z,98500.03
2023-04-01T04:17:17.275Z,98505.88
2023-04-01T04:19:46.053Z,98501.66
2023-04-01T04:22:14.589Z,98496.66
2023-04-01T04:24:42.700Z,98492.09
2023-04-01T04:27:11.493Z,98492.09
2023-04-01T04:29:44.007Z,98492.78
2023-04-01T04:32:12.389Z,98488.91
2023-04-01T04:34:41.217Z,98501.19
2023-04-01T04:37:09.375Z,98493.44
2023-04-01T04:39:38.425Z,98503.62
2023-04-01T04:42:07.262Z,98485.81
2023-04-01T04:44:35.824Z,98481.75
2023-04-01T04:47:04.492Z,98481.09
2023-04-01T04:49:32.916Z,98482.41
2023-04-01T04:52:02.638Z,98485.00
2023-04-01T04:54:31.218Z,98483.38
2023-04-01T04:56:59.767Z,98490.19
2023-04-01T04:59:28.807Z,98489.38
2023-04-01T05:01:58.222Z,98485.81
2023-04-01T05:04:26.876Z,98477.41
2023-04-01T05:06:55.119Z,98490.84
2023-04-01T05:09:24.230Z,98479.84
2023-04-01T05:11:52.658Z,98484.53
2023-04-01T05:14:21.598Z,98492.03
2023-04-01T05:16:51.884Z,98493.78
2023-04-01T05:19:20.073Z,98493.44
2023-04-01T05:21:48.572Z,98493.13
2023-04-01T05:24:17.653Z,98476.41
2023-04-01T05:26:46.070Z,98485.31
2023-04-01T05:29:14.397Z,98489.50
2023-04-01T05:31:43.266Z,98487.91
2023-04-01T05:34:11.780Z,98486.22
2023-04-01T05:36:39.970Z,98490.25
2023-04-01T05:39:08.984Z,98489.41
2023-04-01T05:41:38.681Z,98487.13
2023-04-01T05:44:07.087Z,98491.84
2023-04-01T05:46:39.662Z,98483.41
2023-04-01T05:49:08.577Z,98497.66
2023-04-01T05:51:37.548Z,98504.41
2023-04-01T05:54:07.688Z,98496.50
2023-04-01T05:56:35.866Z,98502.09
2023-04-01T05:59:03.992Z,98491.00
2023-04-01T06:01:33.239Z,98495.72
2023-04-01T06:04:01.905Z,98489.41
2023-04-01T06:06:32.897Z,98497.69
2023-04-01T06:09:19.209Z,98495.72
2023-04-01T06:12:06.629Z,98493.66
2023-04-01T06:14:53.521Z,98489.81
2023-04-01T06:17:40.060Z,98492.44
2023-04-01T06:20:18.128Z,98495.22
2023-04-01T06:23:15.742Z,98486.16
2023-04-01T06:26:12.556Z,98469.00
2023-04-01T06:29:01.060Z,98488.03
2023-04-01T06:31:54.894Z,98486.03
2023-04-01T06:34:55.680Z,98493.56
2023-04-01T06:38:03.421Z,98489.78
2023-04-01T06:40:53.358Z,98493.66
2023-04-01T06:43:23.273Z,98496.62
2023-04-01T06:46:19.951Z,98500.13
2023-04-01T06:49:17.852Z,98503.72
2023-04-01T06:52:13.878Z,98505.66
2023-04-01T06:54:57.717Z,98497.75
2023-04-01T06:57:43.593Z,98499.00
2023-04-01T07:00:20.014Z,98507.59
2023-04-01T07:02:59.751Z,98501.28
2023-04-01T07:05:32.813Z,98513.06
2023-04-01T07:08:06.269Z,98511.56
2023-04-01T07:10:38.398Z,98497.06
2023-04-01T07:13:43.094Z,98515.25
2023-04-01T07:16:30.938Z,98498.44
2023-04-01T07:19:26.715Z,98498.50
2023-04-01T07:21:59.289Z,98505.06
2023-04-01T07:24:35.086Z,98493.06
2023-04-01T07:27:04.535Z,98499.87
2023-04-01T07:29:32.740Z,98502.19
2023-04-01T07:32:50.411Z,98498.25
2023-04-01T07:35:27.993Z,98505.25
2023-04-01T07:38:41.872Z,98505.59
2023-04-01T07:41:42.606Z,98507.72
2023-04-01T07:44:29.965Z,98503.34
2023-04-01T07:47:36.026Z,98507.72
2023-04-01T07:50:14.872Z,98513.09
2023-04-01T07:52:43.364Z,98517.16
2023-04-01T07:55:19.189Z,98519.34
2023-04-01T07:58:11.602Z,98516.19
2023-04-01T08:01:05.355Z,98518.34
2023-04-01T08:03:43.703Z,98526.91
2023-04-01T08:06:25.719Z,98515.50
2023-04-01T08:08:54.430Z,98518.12
2023-04-01T08:11:47.076Z,98520.53
2023-04-01T08:14:52.057Z,98525.56
2023-04-01T08:17:46.039Z,98516.91
2023-04-01T08:20:19.978Z,98523.53
2023-04-01T08:22:58.660Z,98531.41
2023-04-01T08:25:31.145Z,98519.81
2023-04-01T08:28:14.295Z,98515.16
2023-04-01T08:30:55.308Z,98525.47
2023-04-01T08:33:31.923Z,98531.31
2023-04-01T08:36:18.212Z,98531.72
2023-04-01T08:39:11.878Z,98525.84
2023-04-01T08:42:06.322Z,98524.63
2023-04-01T08:45:01.459Z,98522.75
2023-04-01T08:47:31.443Z,98527.94
2023-04-01T08:50:11.082Z,98529.53
2023-04-01T08:53:04.738Z,98531.72
2023-04-01T08:55:39.125Z,98532.31
2023-04-01T08:58:31.866Z,98536.81
2023-04-01T09:01:14.303Z,98531.38
2023-04-01T09:04:02.058Z,98532.72
2023-04-01T09:06:53.206Z,98535.53
2023-04-01T09:09:43.166Z,98533.31
2023-04-01T09:12:26.679Z,98531.69
2023-04-01T09:15:29.099Z,98528.59
2023-04-01T09:18:12.796Z,98523.56
2023-04-01T09:21:20.049Z,98532.88
2023-04-01T09:24:20.828Z,98524.19
2023-04-01T09:26:59.673Z,98526.66
2023-04-01T09:29:55.612Z,98530.69
2023-04-01T09:32:24.521Z,98531.91
2023-04-01T09:34:58.553Z,98525.69
2023-04-01T09:37:43.210Z,98526.78
2023-04-01T09:40:36.794Z,98525.53
2023-04-01T09:43:28.363Z,98523.81
2023-04-01T09:46:20.326Z,98527.72
2023-04-01T09:49:09.496Z,98525.56
2023-04-01T09:52:07.231Z,98527.28
2023-04-01T09:54:55.191Z,98516.28
2023-04-01T09:57:49.694Z,98526.88
2023-04-01T10:00:40.779Z,98520.91
2023-04-01T10:03:39.770Z,98530.66
2023-04-01T10:06:26.070Z,98533.28
2023-04-01T10:09:13.099Z,98534.44
2023-04-01T10:11:46.877Z,98529.56
2023-04-01T10:14:43.856Z,98529.13
2023-04-01T10:17:19.947Z,98528.53
2023-04-01T10:20:46.663Z,98542.56
2023-04-01T10:23:32.973Z,98552.09
2023-04-01T10:26:32.618Z,98538.53
2023-04-01T10:29:28.011Z,98542.34
2023-04-01T10:32:19.078Z,98541.72
2023-04-01T10:34:55.861Z,98543.94
2023-04-01T10:37:37.053Z,98535.28
2023-04-01T10:40:43.052Z,98539.22
2023-04-01T10:43:34.262Z,98540.81
2023-04-01T10:46:30.570Z,98536.31
2023-04-01T10:49:46.876Z,98537.66
2023-04-01T10:52:53.008Z,98534.28
2023-04-01T10:56:04.392Z,98528.72
2023-04-01T10:59:03.695Z,98536.63
2023-04-01T11:02:10.130Z,98524.59
2023-04-01T11:05:31.190Z,98520.44
2023-04-01T11:08:52.632Z,98529.09
2023-04-01T11:11:53.263Z,98526.88
2023-04-01T11:14:40.476Z,98531.22
2023-04-01T11:17:27.422Z,98524.13
2023-04-01T11:20:25.144Z,98515.97
2023-04-01T11:23:10.853Z,98532.41
2023-04-01T11:26:03.267Z,98540.28
2023-04-01T11:29:35.927Z,98539.09
2023-04-01T11:32:38.010Z,98543.94
2023-04-01T11:35:42.082Z,98542.53
2023-04-01T11:38:50.900Z,98545.78
2023-04-01T11:41:41.848Z,98545.37
2023-04-01T11:44:23.710Z,98544.81
2023-04-01T11:47:14.530Z,98534.44
2023-04-01T11:49:54.657Z,98536.81
2023-04-01T11:52:52.252Z,98539.47
2023-04-01T11:55:37.175Z,98535.44
2023-04-01T11:58:31.261Z,98537.31
2023-04-01T12:01:17.595Z,98537.78
2023-04-01T12:04:04.759Z,98529.69
2023-04-01T12:06:39.381Z,98540.41
2023-04-01T12:09:45.797Z,98539.31
2023-04-01T12:12:32.434Z,98532.72
2023-04-01T12:15:24.250Z,98541.34
2023-04-01T12:18:10.862Z,98541.34
2023-04-01T12:20:55.784Z,98533.69
2023-04-01T12:23:32.545Z,98539.06
2023-04-01T12:26:33.013Z,98533.41
2023-04-01T12:29:39.604Z,98542.75
2023-04-01T12:32:53.164Z,98533.09
2023-04-01T12:35:44.988Z,98529.91
2023-04-01T12:38:37.088Z,98518.41
2023-04-01T12:41:33.409Z,98523.03
2023-04-01T12:44:08.932Z,98522.03
2023-04-01T12:47:10.802Z,98536.31
2023-04-01T12:50:14.780Z,98523.44
2023-04-01T12:53:04.925Z,98534.03
2023-04-01T12:55:43.393Z,98528.03
2023-04-01T12:58:27.158Z,98529.00
2023-04-01T13:01:27.838Z,98524.53
2023-04-01T13:04:21.063Z,98512.63
2023-04-01T13:07:14.856Z,98517.47
2023-04-01T13:09:45.434Z,98511.22
2023-04-01T13:12:24.546Z,98512.03
2023-04-01T13:15:23.055Z,98500.56
2023-04-01T13:18:08.813Z,98506.19
2023-04-01T13:20:55.874Z,98514.06
2023-04-01T13:23:30.279Z,98500.91
2023-04-01T13:26:15.170Z,98503.69
2023-04-01T13:29:01.435Z,98509.56
2023-04-01T13:31:54.656Z,98511.16
2023-04-01T13:34:35.278Z,98506.19
2023-04-01T13:37:22.117Z,98511.28
2023-04-01T13:39:59.982Z,98515.47
2023-04-01T13:42:33.295Z,98514.13
2023-04-01T13:45:15.338Z,98510.59
2023-04-01T13:48:08.994Z,98515.00
2023-04-01T13:51:02.627Z,98514.16
2023-04-01T13:54:00.778Z,98510.78
2023-04-01T13:56:43.924Z,98513.00
2023-04-01T13:59:36.092Z,98524.66
2023-04-01T14:02:23.549Z,98524.84
2023-04-01T14:05:32.440Z,98520.47
2023-04-01T14:08:19.606Z,98526.59
2023-04-01T14:11:21.349Z,98524.13
2023-04-01T14:14:28.243Z,98510.97
2023-04-01T14:17:02.392Z,98522.72
2023-04-01T14:19:53.528Z,98517.91
2023-04-01T14:22:22.439Z,98514.09
2023-04-01T14:25:05.833Z,98517.13
2023-04-01T14:27:57.295Z,98518.16
2023-04-01T14:30:57.537Z,98514.16
2023-04-01T14:33:44.643Z,98515.72
2023-04-01T14:36:50.413Z,98506.09
2023-04-01T14:39:37.985Z,98513.09
2023-04-01T14:42:21.937Z,98515.88
2023-04-01T14:45:14.598Z,98526.16
2023-04-01T14:48:15.153Z,98527.19
2023-04-01T14:50:56.544Z,98524.34
2023-04-01T14:53:25.318Z,98515.84
2023-04-01T14:55:59.298Z,98515.72
2023-04-01T14:58:40.888Z,98520.31
2023-04-01T15:01:27.714Z,98516.47
2023-04-01T15:04:16.221Z,98513.03
2023-04-01T15:07:17.640Z,98513.44
2023-04-01T15:09:45.844Z,98514.84
2023-04-01T15:12:35.973Z,98510.78
2023-04-01T15:15:31.275Z,98520.84
2023-04-01T15:18:13.643Z,98522.13
2023-04-01T15:21:00.660Z,98509.25
2023-04-01T15:23:44.715Z,98517.91
2023-04-01T15:26:55.984Z,98516.91
2023-04-01T15:29:34.467Z,98514.75
2023-04-01T15:32:05.815Z,98518.16
2023-04-01T15:34:34.727Z,98523.16
2023-04-01T15:37:11.857Z,98535.69
2023-04-01T15:40:08.877Z,98526.00
2023-04-01T15:42:55.565Z,98517.91
2023-04-01T15:45:55.762Z,98523.75
2023-04-01T15:48:36.136Z,98524.88
2023-04-01T15:51:30.119Z,98523.53
2023-04-01T15:54:05.967Z,98538.66
2023-04-01T15:56:43.371Z,98538.28
2023-04-01T15:59:30.408Z,98535.81
2023-04-01T16:02:38.441Z,98551.16
2023-04-01T16:05:38.537Z,98545.75
2023-04-01T16:08:23.745Z,98550.00
2023-04-01T16:10:52.345Z,98557.47
2023-04-01T16:13:23.398Z,98568.37
2023-04-01T16:16:32.017Z,98570.38
2023-04-01T16:19:15.487Z,98575.59
2023-04-01T16:21:56.066Z,98576.00
2023-04-01T16:24:35.699Z,98574.16
2023-04-01T16:27:12.917Z,98572.78
2023-04-01T16:29:56.936Z,98578.16
2023-04-01T16:32:54.169Z,98577.19
2023-04-01T16:36:07.559Z,98581.19
2023-04-01T16:38:42.894Z,98589.78
2023-04-01T16:41:21.663Z,98587.78
2023-04-01T16:43:56.888Z,98589.78
2023-04-01T16:46:36.784Z,98587.03
2023-04-01T16:49:27.017Z,98588.22
2023-04-01T16:52:05.352Z,98592.22
2023-04-01T16:55:01.185Z,98600.13
2023-04-01T16:57:44.700Z,98594.59
2023-04-01T17:00:28.839Z,98591.91
2023-04-01T17:03:18.385Z,98605.38
2023-04-01T17:06:15.406Z,98610.38
2023-04-01T17:09:21.497Z,98610.78
2023-04-01T17:12:28.482Z,98619.81
2023-04-01T17:15:09.179Z,98619.03
2023-04-01T17:17:40.928Z,98623.56
2023-04-01T17:20:30.565Z,98614.06
2023-04-01T17:23:41.259Z,98622.22
2023-04-01T17:26:48.246Z,98627.88
2023-04-01T17:30:05.277Z,98626.78
2023-04-01T17:33:01.922Z,98630.47
2023-04-01T17:35:38.885Z,98632.09
2023-04-01T17:38:10.893Z,98634.19
2023-04-01T17:40:51.765Z,98641.19
2023-04-01T17:43:33.205Z,98644.06
2023-04-01T17:46:40.888Z,98640.91
2023-04-01T17:49:15.342Z,98642.72
2023-04-01T17:51:56.739Z,98638.06
2023-04-01T17:54:45.496Z,98643.72
2023-04-01T17:57:35.449Z,98640.62
2023-04-01T18:00:15.519Z,98646.81
2023-04-01T18:03:30.938Z,98645.72
2023-04-01T18:06:15.490Z,98655.88
2023-04-01T18:08:59.318Z,98657.81
2023-04-01T18:11:40.422Z,98664.59
2023-04-01T18:14:35.175Z,98666.56
2023-04-01T18:17:25.910Z,98665.59
2023-04-01T18:20:31.696Z,98674.19
2023-04-01T18:23:03.782Z,98669.34
2023-04-01T18:25:55.227Z,98669.53
2023-04-01T18:28:29.018Z,98681.75
2023-04-01T18:31:11.288Z,98675.19
2023-04-01T18:34:03.433Z,98679.88
2023-04-01T18:37:01.789Z,98685.78
2023-04-01T18:39:39.215Z,98688.91
2023-04-01T18:42:16.723Z,98700.69
2023-04-01T18:44:51.771Z,98701.41
2023-04-01T18:47:48.256Z,98692.41
2023-04-01T18:50:24.543Z,98697.44
2023-04-01T18:53:21.998Z,98688.53
2023-04-01T18:56:04.734Z,98699.75
2023-04-01T18:58:53.598Z,98692.66
2023-04-01T19:01:36.873Z,98707.00
2023-04-01T19:04:22.625Z,98701.84
2023-04-01T19:06:55.910Z,98702.94
2023-04-01T19:09:43.803Z,98707.38
2023-04-01T19:12:32.285Z,98705.59
2023-04-01T19:15:23.874Z,98704.16
2023-04-01T19:17:55.351Z,98704.56
2023-04-01T19:21:02.715Z,98709.22
2023-04-01T19:24:00.516Z,98710.63
2023-04-01T19:27:04.576Z,98700.50
2023-04-01T19:30:10.972Z,98710.91
2023-04-01T19:32:53.331Z,98702.72
2023-04-01T19:35:31.562Z,98719.72
2023-04-01T19:38:06.423Z,98720.50
2023-04-01T19:41:10.395Z,98712.72
2023-04-01T19:43:47.941Z,98726.63
2023-04-01T19:46:22.819Z,98726.28
2023-04-01T19:49:05.510Z,98727.19
2023-04-01T19:52:04.981Z,98728.72
2023-04-01T19:55:02.410Z,98736.28
2023-04-01T19:58:08.361Z,98730.59
2023-04-01T20:00:48.176Z,98734.53
2023-04-01T20:03:46.199Z,98729.69
2023-04-01T20:06:28.826Z,98729.06
2023-04-01T20:09:36.248Z,98728.97
2023-04-01T20:12:30.289Z,98732.41
2023-04-01T20:15:01.815Z,98732.59
2023-04-01T20:17:43.224Z,98722.50
2023-04-01T20:20:11.683Z,98729.59
2023-04-01T20:22:46.295Z,98727.97
2023-04-01T20:25:37.218Z,98728.91
2023-04-01T20:28:14.496Z,98727.09
2023-04-01T20:30:54.896Z,98725.94
2023-04-01T20:33:33.676Z,98727.63
2023-04-01T20:36:14.989Z,98726.44
2023-04-01T20:38:59.229Z,98728.03
2023-04-01T20:41:38.770Z,98720.87
2023-04-01T20:44:12.998Z,98724.97
2023-04-01T20:46:57.231Z,98726.31
2023-04-01T20:49:32.455Z,98740.41
2023-04-01T20:52:13.049Z,98743.09
2023-04-01T20:54:44.484Z,98742.28
2023-04-01T20:57:54.834Z,98740.78
2023-04-01T21:00:44.947Z,98740.00
2023-04-01T21:03:26.598Z,98750.44
2023-04-01T21:06:13.704Z,98764.44
2023-04-01T21:08:46.211Z,98768.84
2023-04-01T21:11:35.483Z,98765.06
2023-04-01T21:14:16.336Z,98763.12
2023-04-01T21:17:10.129Z,98765.91
2023-04-01T21:19:38.518Z,98762.53
2023-04-01T21:22:20.358Z,98758.91
2023-04-01T21:25:12.636Z,98756.97
2023-04-01T21:28:06.712Z,98753.72
2023-04-01T21:31:00.611Z,98765.75
2023-04-01T21:33:46.782Z,98756.50
2023-04-01T21:36:36.798Z,98768.69
2023-04-01T21:39:33.971Z,98766.44
2023-04-01T21:42:17.335Z,98765.13
2023-04-01T21:45:08.837Z,98759.41
2023-04-01T21:47:46.129Z,98753.22
2023-04-01T21:50:35.815Z,98776.28
2023-04-01T21:53:32.479Z,98771.56
2023-04-01T21:56:18.936Z,98765.66
2023-04-01T21:58:50.387Z,98767.50
2023-04-01T22:02:04.702Z,98769.25
2023-04-01T22:05:03.476Z,98771.22
2023-04-01T22:07:56.926Z,98776.88
2023-04-01T22:10:52.930Z,98766.25
2023-04-01T22:13:27.045Z,98771.47
2023-04-01T22:16:16.984Z,98768.38
2023-04-01T22:19:30.426Z,98779.63
2023-04-01T22:22:30.682Z,98779.84
2023-04-01T22:25:07.055Z,98779.38
2023-04-01T22:27:57.021Z,98788.31
2023-04-01T22:30:32.606Z,98787.66
2023-04-01T22:33:11.673Z,98793.53
2023-04-01T22:35:48.465Z,98794.53
2023-04-01T22:38:57.390Z,98797.59
2023-04-01T22:41:38.017Z,98801.84
2023-04-01T22:44:22.822Z,98800.12
2023-04-01T22:47:06.470Z,98804.31
2023-04-01T22:49:43.177Z,98805.81
2023-04-01T22:52:33.300Z,98810.72
2023-04-01T22:55:10.916Z,98820.97
2023-04-01T22:58:06.711Z,98821.94
2023-04-01T23:00:41.934Z,98822.59
2023-04-01T23:03:15.868Z,98830.88
2023-04-01T23:05:51.648Z,98830.72
2023-04-01T23:08:37.847Z,98838.84
2023-04-01T23:11:09.905Z,98830.91
2023-04-01T23:13:49.441Z,98844.22
2023-04-01T23:16:21.605Z,98827.81
2023-04-01T23:19:17.492Z,98844.69
2023-04-01T23:21:50.714Z,98835.63
2023-04-01T23:24:48.810Z,98845.53
2023-04-01T23:28:15.970Z,98839.66
2023-04-01T23:30:45.019Z,98844.38
2023-04-01T23:33:19.962Z,98846.97
2023-04-01T23:36:16.627Z,98843.81
2023-04-01T23:38:49.934Z,98842.25
2023-04-01T23:41:26.380Z,98847.44
2023-04-01T23:44:11.475Z,98842.00
2023-04-01T23:46:42.039Z,98841.03
2023-04-01T23:49:28.347Z,98842.84
2023-04-01T23:52:01.058Z,98839.56
2023-04-01T23:54:40.432Z,98854.00
2023-04-01T23:57:23.306Z,98843.16
